KAC107 OTHH-OKKK
Flight info
| Callsign | KAC107 |
|---|---|
| Flight time | 0h 54m |
| Altitude | 28000 |
| Route | TULUB3E TULUB B457 BHR A453 KUMBO/N0377F240 A453 DEBTI DEBTI1H |
| Aircraft | A320/M-SDE3FGHIRWY/LB1 |
Departure
| Time | 2026-05-04 12:38 |
|---|---|
| Airport | Hamad International Airport (OTHH) |
Arrival
| Time | 2026-05-04 13:32 |
|---|---|
| Airport | Kuwait International Airport (OKKK) |
| Time | Latitude | Longitude | Altitude | Speed | Heading |
|---|---|---|---|---|---|
| 2026-05-04 12:01 | 25.26651 | 51.61218 | 30 ft | 0 kts | 248° |
| 2026-05-04 12:21 | 25.26652 | 51.61218 | 30 ft | 1 kts | 248° |
| 2026-05-04 12:22 | 25.26660 | 51.61242 | 30 ft | 4 kts | 248° |
| 2026-05-04 12:22 | 25.26670 | 51.61269 | 30 ft | 4 kts | 248° |
| 2026-05-04 12:22 | 25.26678 | 51.61292 | 30 ft | 4 kts | 261° |
| 2026-05-04 12:22 | 25.26676 | 51.61319 | 30 ft | 4 kts | 305° |
| 2026-05-04 12:23 | 25.26657 | 51.61337 | 30 ft | 4 kts | 336° |
| 2026-05-04 12:23 | 25.26633 | 51.61348 | 30 ft | 4 kts | 338° |
| 2026-05-04 12:23 | 25.26610 | 51.61357 | 30 ft | 1 kts | 338° |
| 2026-05-04 12:23 | 25.26609 | 51.61357 | 30 ft | 0 kts | 338° |
| 2026-05-04 12:26 | 25.26611 | 51.61357 | 30 ft | 2 kts | 338° |
| 2026-05-04 12:26 | 25.26650 | 51.61339 | 30 ft | 10 kts | 338° |
| 2026-05-04 12:26 | 25.26714 | 51.61322 | 30 ft | 9 kts | 7° |
| 2026-05-04 12:27 | 25.26766 | 51.61342 | 30 ft | 7 kts | 23° |
| 2026-05-04 12:27 | 25.26807 | 51.61362 | 30 ft | 6 kts | 23° |
| 2026-05-04 12:27 | 25.26840 | 51.61377 | 30 ft | 5 kts | 23° |
| 2026-05-04 12:27 | 25.26878 | 51.61395 | 30 ft | 7 kts | 23° |
| 2026-05-04 12:28 | 25.26917 | 51.61413 | 30 ft | 5 kts | 23° |
| 2026-05-04 12:28 | 25.26947 | 51.61427 | 30 ft | 4 kts | 23° |
| 2026-05-04 12:28 | 25.26970 | 51.61438 | 30 ft | 3 kts | 24° |
| 2026-05-04 12:28 | 25.26986 | 51.61448 | 30 ft | 2 kts | 34° |
| 2026-05-04 12:29 | 25.26998 | 51.61462 | 30 ft | 5 kts | 52° |
| 2026-05-04 12:29 | 25.27021 | 51.61520 | 30 ft | 10 kts | 70° |
| 2026-05-04 12:29 | 25.27041 | 51.61577 | 30 ft | 7 kts | 66° |
| 2026-05-04 12:29 | 25.27058 | 51.61620 | 30 ft | 5 kts | 66° |
| 2026-05-04 12:30 | 25.27071 | 51.61655 | 30 ft | 4 kts | 74° |
| 2026-05-04 12:30 | 25.27068 | 51.61684 | 30 ft | 3 kts | 111° |
| 2026-05-04 12:30 | 25.27048 | 51.61704 | 29 ft | 8 kts | 144° |
| 2026-05-04 12:30 | 25.26970 | 51.61740 | 29 ft | 14 kts | 159° |
| 2026-05-04 12:31 | 25.26879 | 51.61780 | 29 ft | 14 kts | 158° |
| 2026-05-04 12:31 | 25.26788 | 51.61820 | 29 ft | 14 kts | 158° |
| 2026-05-04 12:31 | 25.26697 | 51.61861 | 29 ft | 14 kts | 158° |
| 2026-05-04 12:31 | 25.26608 | 51.61898 | 29 ft | 13 kts | 160° |
| 2026-05-04 12:32 | 25.26524 | 51.61937 | 29 ft | 13 kts | 157° |
| 2026-05-04 12:32 | 25.26384 | 51.61998 | 30 ft | 9 kts | 159° |
| 2026-05-04 12:32 | 25.26333 | 51.62024 | 30 ft | 7 kts | 153° |
| 2026-05-04 12:33 | 25.26277 | 51.62048 | 30 ft | 9 kts | 162° |
| 2026-05-04 12:33 | 25.26221 | 51.62070 | 30 ft | 9 kts | 156° |
| 2026-05-04 12:33 | 25.26145 | 51.62109 | 30 ft | 13 kts | 159° |
| 2026-05-04 12:33 | 25.26057 | 51.62144 | 30 ft | 14 kts | 160° |
| 2026-05-04 12:34 | 25.25965 | 51.62184 | 30 ft | 15 kts | 158° |
| 2026-05-04 12:34 | 25.25859 | 51.62230 | 30 ft | 17 kts | 158° |
| 2026-05-04 12:34 | 25.25741 | 51.62282 | 30 ft | 19 kts | 158° |
| 2026-05-04 12:34 | 25.25635 | 51.62329 | 30 ft | 13 kts | 156° |
| 2026-05-04 12:35 | 25.25559 | 51.62363 | 29 ft | 11 kts | 159° |
| 2026-05-04 12:35 | 25.25494 | 51.62395 | 29 ft | 9 kts | 141° |
| 2026-05-04 12:35 | 25.25483 | 51.62454 | 29 ft | 8 kts | 78° |
| 2026-05-04 12:35 | 25.25498 | 51.62507 | 29 ft | 7 kts | 70° |
| 2026-05-04 12:36 | 25.25516 | 51.62556 | 28 ft | 7 kts | 66° |
| 2026-05-04 12:36 | 25.25540 | 51.62602 | 27 ft | 7 kts | 56° |
| 2026-05-04 12:36 | 25.25564 | 51.62642 | 27 ft | 5 kts | 56° |
| 2026-05-04 12:36 | 25.25590 | 51.62652 | 27 ft | 4 kts | 0° |
| 2026-05-04 12:37 | 25.25696 | 51.62610 | 26 ft | 42 kts | 338° |
| 2026-05-04 12:37 | 25.26202 | 51.62389 | 28 ft | 110 kts | 339° |
| 2026-05-04 12:37 | 25.27093 | 51.62002 | 28 ft | 162 kts | 339° |
| 2026-05-04 12:37 | 25.28196 | 51.61528 | 493 ft | 171 kts | 341° |
| 2026-05-04 12:38 | 25.29333 | 51.61086 | 1186 ft | 176 kts | 342° |
| 2026-05-04 12:38 | 25.30518 | 51.60583 | 1794 ft | 191 kts | 339° |
| 2026-05-04 12:38 | 25.31814 | 51.59996 | 2070 ft | 212 kts | 339° |
| 2026-05-04 12:38 | 25.33265 | 51.59345 | 2314 ft | 237 kts | 342° |
| 2026-05-04 12:39 | 25.34966 | 51.59156 | 2636 ft | 259 kts | 8° |
| 2026-05-04 12:39 | 25.36755 | 51.59601 | 3302 ft | 267 kts | 18° |
| 2026-05-04 12:39 | 25.38518 | 51.60244 | 3865 ft | 273 kts | 20° |
| 2026-05-04 12:39 | 25.40335 | 51.60943 | 4001 ft | 273 kts | 20° |
| 2026-05-04 12:40 | 25.42134 | 51.61606 | 4033 ft | 272 kts | 19° |
| 2026-05-04 12:40 | 25.43919 | 51.62220 | 4035 ft | 272 kts | 18° |
| 2026-05-04 12:40 | 25.45737 | 51.62809 | 4036 ft | 272 kts | 17° |
| 2026-05-04 12:40 | 25.47563 | 51.63366 | 4036 ft | 272 kts | 15° |
| 2026-05-04 12:41 | 25.49407 | 51.63850 | 4036 ft | 272 kts | 13° |
| 2026-05-04 12:41 | 25.51318 | 51.63976 | 4498 ft | 280 kts | 352° |
| 2026-05-04 12:41 | 25.53152 | 51.63265 | 5394 ft | 282 kts | 330° |
| 2026-05-04 12:41 | 25.54824 | 51.62109 | 6240 ft | 285 kts | 328° |
| 2026-05-04 12:42 | 25.56493 | 51.60905 | 7042 ft | 288 kts | 327° |
| 2026-05-04 12:42 | 25.58173 | 51.59672 | 7829 ft | 291 kts | 327° |
| 2026-05-04 12:42 | 25.59876 | 51.58418 | 8600 ft | 295 kts | 327° |
| 2026-05-04 12:42 | 25.61593 | 51.57155 | 9350 ft | 298 kts | 327° |
| 2026-05-04 12:43 | 25.63331 | 51.55879 | 10087 ft | 301 kts | 327° |
| 2026-05-04 12:43 | 25.65134 | 51.54557 | 10440 ft | 321 kts | 327° |
| 2026-05-04 12:43 | 25.67058 | 51.53149 | 10706 ft | 339 kts | 327° |
| 2026-05-04 12:43 | 25.69025 | 51.51710 | 11281 ft | 346 kts | 327° |
| 2026-05-04 12:44 | 25.71046 | 51.50234 | 11932 ft | 350 kts | 327° |
| 2026-05-04 12:44 | 25.73092 | 51.48738 | 12583 ft | 354 kts | 327° |
| 2026-05-04 12:44 | 25.75157 | 51.47226 | 13221 ft | 357 kts | 327° |
| 2026-05-04 12:44 | 25.77242 | 51.45699 | 13817 ft | 360 kts | 327° |
| 2026-05-04 12:45 | 25.79342 | 51.44160 | 14419 ft | 364 kts | 327° |
| 2026-05-04 12:45 | 25.81464 | 51.42605 | 14999 ft | 367 kts | 327° |
| 2026-05-04 12:45 | 25.83606 | 51.41034 | 15558 ft | 370 kts | 327° |
| 2026-05-04 12:45 | 25.85765 | 51.39451 | 16124 ft | 373 kts | 327° |
| 2026-05-04 12:46 | 25.87938 | 51.37858 | 16675 ft | 376 kts | 327° |
| 2026-05-04 12:46 | 25.90134 | 51.36249 | 17202 ft | 379 kts | 327° |
| 2026-05-04 12:46 | 25.92350 | 51.34623 | 17730 ft | 382 kts | 327° |
| 2026-05-04 12:46 | 25.94575 | 51.32984 | 18236 ft | 385 kts | 326° |
| 2026-05-04 12:47 | 25.96628 | 51.31064 | 18718 ft | 389 kts | 314° |
| 2026-05-04 12:47 | 25.98310 | 51.28688 | 19196 ft | 393 kts | 302° |
| 2026-05-04 12:47 | 25.99615 | 51.26004 | 19663 ft | 396 kts | 297° |
| 2026-05-04 12:47 | 26.00884 | 51.23273 | 20111 ft | 399 kts | 297° |
| 2026-05-04 12:48 | 26.02293 | 51.20611 | 20580 ft | 401 kts | 308° |
| 2026-05-04 12:48 | 26.04226 | 51.18365 | 20999 ft | 403 kts | 317° |
| 2026-05-04 12:48 | 26.06267 | 51.16217 | 21422 ft | 405 kts | 317° |
| 2026-05-04 12:48 | 26.08326 | 51.14059 | 21841 ft | 408 kts | 317° |
| 2026-05-04 12:49 | 26.10399 | 51.11889 | 22257 ft | 411 kts | 317° |
| 2026-05-04 12:49 | 26.12488 | 51.09705 | 22667 ft | 413 kts | 317° |
| 2026-05-04 12:49 | 26.14590 | 51.07508 | 23050 ft | 416 kts | 317° |
| 2026-05-04 12:49 | 26.15987 | 51.06044 | 23306 ft | 417 kts | 317° |
| 2026-05-04 12:50 | 26.18791 | 51.03095 | 23798 ft | 420 kts | 317° |
| 2026-05-04 12:50 | 26.20923 | 51.00847 | 24169 ft | 423 kts | 317° |
| 2026-05-04 12:50 | 26.23062 | 50.98586 | 24523 ft | 425 kts | 317° |
| 2026-05-04 12:50 | 26.25215 | 50.96315 | 24874 ft | 428 kts | 317° |
| 2026-05-04 12:51 | 26.27380 | 50.94033 | 25209 ft | 430 kts | 317° |
| 2026-05-04 12:51 | 26.28854 | 50.92480 | 25437 ft | 431 kts | 317° |
| 2026-05-04 12:51 | 26.31038 | 50.90178 | 25766 ft | 434 kts | 317° |
| 2026-05-04 12:51 | 26.33236 | 50.87858 | 26091 ft | 436 kts | 317° |
| 2026-05-04 12:52 | 26.35440 | 50.85530 | 26398 ft | 438 kts | 317° |
| 2026-05-04 12:52 | 26.37628 | 50.83218 | 26711 ft | 440 kts | 317° |
| 2026-05-04 12:52 | 26.39858 | 50.80861 | 27006 ft | 442 kts | 317° |
| 2026-05-04 12:52 | 26.42093 | 50.78497 | 27295 ft | 444 kts | 317° |
| 2026-05-04 12:53 | 26.44341 | 50.76115 | 27578 ft | 446 kts | 317° |
| 2026-05-04 12:53 | 26.46593 | 50.73727 | 27769 ft | 447 kts | 317° |
| 2026-05-04 12:53 | 26.48825 | 50.71362 | 27812 ft | 434 kts | 317° |
| 2026-05-04 12:53 | 26.50978 | 50.69075 | 27812 ft | 423 kts | 317° |
| 2026-05-04 12:54 | 26.53098 | 50.66819 | 27813 ft | 420 kts | 317° |
| 2026-05-04 12:54 | 26.55213 | 50.64571 | 27813 ft | 419 kts | 317° |
| 2026-05-04 12:54 | 26.57321 | 50.62333 | 27813 ft | 418 kts | 317° |
| 2026-05-04 12:54 | 26.59431 | 50.60094 | 27813 ft | 418 kts | 317° |
| 2026-05-04 12:55 | 26.61537 | 50.57858 | 27813 ft | 418 kts | 317° |
| 2026-05-04 12:55 | 26.63645 | 50.55617 | 27813 ft | 418 kts | 317° |
| 2026-05-04 12:55 | 26.65752 | 50.53376 | 27813 ft | 418 kts | 317° |
| 2026-05-04 12:55 | 26.67860 | 50.51134 | 27812 ft | 418 kts | 317° |
| 2026-05-04 12:56 | 26.69961 | 50.48895 | 27811 ft | 418 kts | 317° |
| 2026-05-04 12:56 | 26.72064 | 50.46658 | 27809 ft | 417 kts | 317° |
| 2026-05-04 12:56 | 26.74172 | 50.44427 | 27806 ft | 417 kts | 317° |
| 2026-05-04 12:56 | 26.76258 | 50.42229 | 27804 ft | 417 kts | 317° |
| 2026-05-04 12:57 | 26.78366 | 50.40005 | 27803 ft | 417 kts | 317° |
| 2026-05-04 12:57 | 26.80476 | 50.37778 | 27801 ft | 417 kts | 317° |
| 2026-05-04 12:57 | 26.82586 | 50.35545 | 27800 ft | 417 kts | 317° |
| 2026-05-04 12:57 | 26.84692 | 50.33318 | 27798 ft | 417 kts | 317° |
| 2026-05-04 12:58 | 26.86797 | 50.31092 | 27798 ft | 417 kts | 317° |
| 2026-05-04 12:58 | 26.88901 | 50.28861 | 27797 ft | 417 kts | 317° |
| 2026-05-04 12:58 | 26.91004 | 50.26626 | 27796 ft | 417 kts | 317° |
| 2026-05-04 12:58 | 26.93105 | 50.24390 | 27796 ft | 416 kts | 317° |
| 2026-05-04 12:59 | 26.95207 | 50.22152 | 27792 ft | 416 kts | 317° |
| 2026-05-04 12:59 | 26.97308 | 50.19917 | 27796 ft | 416 kts | 317° |
| 2026-05-04 12:59 | 26.99412 | 50.17683 | 27796 ft | 416 kts | 317° |
| 2026-05-04 12:59 | 27.01514 | 50.15449 | 27796 ft | 416 kts | 317° |
| 2026-05-04 13:00 | 27.03616 | 50.13212 | 27796 ft | 416 kts | 317° |
| 2026-05-04 13:00 | 27.05617 | 50.10861 | 27797 ft | 417 kts | 311° |
| 2026-05-04 13:00 | 27.07496 | 50.08390 | 27797 ft | 417 kts | 311° |
| 2026-05-04 13:00 | 27.09379 | 50.05915 | 27797 ft | 417 kts | 311° |
| 2026-05-04 13:01 | 27.11260 | 50.03443 | 27797 ft | 417 kts | 311° |
| 2026-05-04 13:01 | 27.13145 | 50.00962 | 27797 ft | 417 kts | 311° |
| 2026-05-04 13:01 | 27.15004 | 49.98516 | 27797 ft | 417 kts | 311° |
| 2026-05-04 13:01 | 27.16882 | 49.96044 | 27797 ft | 417 kts | 311° |
| 2026-05-04 13:02 | 27.18767 | 49.93559 | 27798 ft | 417 kts | 311° |
| 2026-05-04 13:02 | 27.20646 | 49.91082 | 27798 ft | 417 kts | 311° |
| 2026-05-04 13:02 | 27.22531 | 49.88598 | 27798 ft | 417 kts | 311° |
| 2026-05-04 13:02 | 27.24412 | 49.86120 | 27799 ft | 417 kts | 311° |
| 2026-05-04 13:03 | 27.26292 | 49.83639 | 27799 ft | 417 kts | 311° |
| 2026-05-04 13:03 | 27.28171 | 49.81156 | 27799 ft | 417 kts | 311° |
| 2026-05-04 13:03 | 27.30050 | 49.78675 | 27799 ft | 417 kts | 311° |
| 2026-05-04 13:03 | 27.31933 | 49.76186 | 27799 ft | 417 kts | 311° |
| 2026-05-04 13:04 | 27.33814 | 49.73700 | 27799 ft | 417 kts | 311° |
| 2026-05-04 13:04 | 27.35695 | 49.71216 | 27799 ft | 417 kts | 311° |
| 2026-05-04 13:04 | 27.37573 | 49.68734 | 27799 ft | 417 kts | 311° |
| 2026-05-04 13:04 | 27.39449 | 49.66249 | 27799 ft | 417 kts | 311° |
| 2026-05-04 13:05 | 27.41324 | 49.63759 | 27798 ft | 417 kts | 310° |
| 2026-05-04 13:05 | 27.43196 | 49.61268 | 27798 ft | 416 kts | 310° |
| 2026-05-04 13:05 | 27.45067 | 49.58776 | 27797 ft | 416 kts | 310° |
| 2026-05-04 13:05 | 27.46914 | 49.56321 | 27796 ft | 416 kts | 311° |
| 2026-05-04 13:06 | 27.48931 | 49.53987 | 27793 ft | 415 kts | 320° |
| 2026-05-04 13:06 | 27.51185 | 49.51961 | 27791 ft | 415 kts | 322° |
| 2026-05-04 13:06 | 27.53449 | 49.49947 | 27795 ft | 415 kts | 322° |
| 2026-05-04 13:06 | 27.55714 | 49.47927 | 27791 ft | 415 kts | 322° |
| 2026-05-04 13:07 | 27.57972 | 49.45902 | 27788 ft | 415 kts | 322° |
| 2026-05-04 13:07 | 27.60228 | 49.43875 | 27793 ft | 415 kts | 322° |
| 2026-05-04 13:07 | 27.62485 | 49.41846 | 27789 ft | 415 kts | 322° |
| 2026-05-04 13:07 | 27.64743 | 49.39817 | 27793 ft | 415 kts | 322° |
| 2026-05-04 13:08 | 27.67001 | 49.37790 | 27796 ft | 415 kts | 322° |
| 2026-05-04 13:08 | 27.69263 | 49.35761 | 27796 ft | 415 kts | 322° |
| 2026-05-04 13:08 | 27.71524 | 49.33732 | 27796 ft | 415 kts | 322° |
| 2026-05-04 13:08 | 27.73781 | 49.31700 | 27797 ft | 415 kts | 322° |
| 2026-05-04 13:09 | 27.76039 | 49.29665 | 27797 ft | 415 kts | 322° |
| 2026-05-04 13:09 | 27.78301 | 49.27627 | 27797 ft | 415 kts | 322° |
| 2026-05-04 13:09 | 27.80559 | 49.25593 | 27797 ft | 415 kts | 322° |
| 2026-05-04 13:09 | 27.82822 | 49.23554 | 27797 ft | 415 kts | 322° |
| 2026-05-04 13:10 | 27.85081 | 49.21518 | 27797 ft | 415 kts | 322° |
| 2026-05-04 13:10 | 27.87363 | 49.19503 | 27796 ft | 415 kts | 326° |
| 2026-05-04 13:10 | 27.89818 | 49.17806 | 27798 ft | 415 kts | 330° |
| 2026-05-04 13:10 | 27.92317 | 49.16169 | 27798 ft | 415 kts | 330° |
| 2026-05-04 13:11 | 27.94815 | 49.14533 | 27799 ft | 415 kts | 330° |
| 2026-05-04 13:11 | 27.97311 | 49.12898 | 27799 ft | 415 kts | 330° |
| 2026-05-04 13:11 | 27.99812 | 49.11260 | 27800 ft | 415 kts | 330° |
| 2026-05-04 13:11 | 28.02307 | 49.09621 | 27800 ft | 415 kts | 330° |
| 2026-05-04 13:12 | 28.04804 | 49.07982 | 27800 ft | 415 kts | 330° |
| 2026-05-04 13:12 | 28.07305 | 49.06341 | 27787 ft | 418 kts | 330° |
| 2026-05-04 13:12 | 28.09834 | 49.04680 | 27314 ft | 422 kts | 330° |
| 2026-05-04 13:12 | 28.12337 | 49.03032 | 26697 ft | 421 kts | 330° |
| 2026-05-04 13:13 | 28.14858 | 49.01370 | 26079 ft | 419 kts | 330° |
| 2026-05-04 13:13 | 28.17364 | 48.99717 | 25579 ft | 414 kts | 330° |
| 2026-05-04 13:13 | 28.19848 | 48.98080 | 25093 ft | 410 kts | 330° |
| 2026-05-04 13:13 | 28.22308 | 48.96460 | 24513 ft | 408 kts | 330° |
| 2026-05-04 13:14 | 28.24753 | 48.94847 | 23999 ft | 404 kts | 330° |
| 2026-05-04 13:14 | 28.27175 | 48.93246 | 23462 ft | 401 kts | 330° |
| 2026-05-04 13:14 | 28.29577 | 48.91657 | 22942 ft | 398 kts | 330° |
| 2026-05-04 13:14 | 28.31957 | 48.90085 | 22470 ft | 394 kts | 330° |
| 2026-05-04 13:15 | 28.34327 | 48.88519 | 21995 ft | 391 kts | 330° |
| 2026-05-04 13:15 | 28.36679 | 48.86962 | 21413 ft | 391 kts | 330° |
| 2026-05-04 13:15 | 28.38975 | 48.85442 | 21066 ft | 385 kts | 330° |
| 2026-05-04 13:15 | 28.41311 | 48.83895 | 20582 ft | 383 kts | 330° |
| 2026-05-04 13:16 | 28.43602 | 48.82377 | 20093 ft | 380 kts | 330° |
| 2026-05-04 13:16 | 28.45846 | 48.80888 | 19641 ft | 378 kts | 330° |
| 2026-05-04 13:16 | 28.48112 | 48.79384 | 19187 ft | 375 kts | 330° |
| 2026-05-04 13:16 | 28.50360 | 48.77893 | 18735 ft | 372 kts | 330° |
| 2026-05-04 13:17 | 28.52586 | 48.76413 | 18280 ft | 370 kts | 330° |
| 2026-05-04 13:17 | 28.54792 | 48.74943 | 17677 ft | 364 kts | 330° |
| 2026-05-04 13:17 | 28.56922 | 48.73412 | 16913 ft | 361 kts | 322° |
| 2026-05-04 13:17 | 28.58656 | 48.71393 | 16390 ft | 351 kts | 308° |
| 2026-05-04 13:18 | 28.60103 | 48.69208 | 15957 ft | 340 kts | 307° |
| 2026-05-04 13:18 | 28.61511 | 48.67086 | 15537 ft | 330 kts | 308° |
| 2026-05-04 13:18 | 28.62886 | 48.65021 | 15135 ft | 327 kts | 308° |
| 2026-05-04 13:18 | 28.64264 | 48.62959 | 14739 ft | 327 kts | 308° |
| 2026-05-04 13:19 | 28.65626 | 48.60920 | 14379 ft | 326 kts | 308° |
| 2026-05-04 13:19 | 28.66984 | 48.58886 | 14148 ft | 321 kts | 308° |
| 2026-05-04 13:19 | 28.68334 | 48.56856 | 13767 ft | 321 kts | 308° |
| 2026-05-04 13:19 | 28.69681 | 48.54828 | 13376 ft | 321 kts | 308° |
| 2026-05-04 13:20 | 28.71014 | 48.52819 | 13145 ft | 309 kts | 308° |
| 2026-05-04 13:20 | 28.72266 | 48.50929 | 13051 ft | 289 kts | 308° |
| 2026-05-04 13:20 | 28.73463 | 48.49120 | 12931 ft | 282 kts | 308° |
| 2026-05-04 13:20 | 28.74635 | 48.47316 | 12572 ft | 286 kts | 307° |
| 2026-05-04 13:21 | 28.75822 | 48.45436 | 11854 ft | 300 kts | 306° |
| 2026-05-04 13:21 | 28.77054 | 48.43462 | 11198 ft | 310 kts | 306° |
| 2026-05-04 13:21 | 28.78309 | 48.41451 | 10823 ft | 309 kts | 306° |
| 2026-05-04 13:21 | 28.79546 | 48.39471 | 10572 ft | 304 kts | 306° |
| 2026-05-04 13:22 | 28.80761 | 48.37526 | 10322 ft | 299 kts | 306° |
| 2026-05-04 13:22 | 28.81958 | 48.35614 | 10036 ft | 295 kts | 306° |
| 2026-05-04 13:22 | 28.83136 | 48.33735 | 9655 ft | 295 kts | 306° |
| 2026-05-04 13:22 | 28.84331 | 48.31832 | 9246 ft | 295 kts | 306° |
| 2026-05-04 13:23 | 28.85523 | 48.29933 | 8849 ft | 295 kts | 306° |
| 2026-05-04 13:23 | 28.86719 | 48.28028 | 8444 ft | 295 kts | 306° |
| 2026-05-04 13:23 | 28.87910 | 48.26127 | 8033 ft | 294 kts | 306° |
| 2026-05-04 13:23 | 28.89098 | 48.24228 | 7637 ft | 294 kts | 306° |
| 2026-05-04 13:24 | 28.90283 | 48.22334 | 7236 ft | 293 kts | 306° |
| 2026-05-04 13:24 | 28.91468 | 48.20438 | 6829 ft | 293 kts | 306° |
| 2026-05-04 13:24 | 28.92645 | 48.18555 | 6424 ft | 291 kts | 306° |
| 2026-05-04 13:25 | 28.94919 | 48.14909 | 5649 ft | 269 kts | 306° |
| 2026-05-04 13:25 | 28.95979 | 48.13206 | 5290 ft | 258 kts | 306° |
| 2026-05-04 13:25 | 28.97118 | 48.11688 | 4948 ft | 247 kts | 320° |
| 2026-05-04 13:25 | 28.98514 | 48.10645 | 4611 ft | 234 kts | 333° |
| 2026-05-04 13:26 | 28.99917 | 48.09781 | 4299 ft | 225 kts | 333° |
| 2026-05-04 13:26 | 29.01263 | 48.08942 | 4004 ft | 215 kts | 333° |
| 2026-05-04 13:26 | 29.02526 | 48.08153 | 3723 ft | 200 kts | 333° |
| 2026-05-04 13:26 | 29.03700 | 48.07419 | 3447 ft | 189 kts | 333° |
| 2026-05-04 13:27 | 29.04823 | 48.06716 | 3196 ft | 178 kts | 333° |
| 2026-05-04 13:27 | 29.05849 | 48.05983 | 2992 ft | 168 kts | 330° |
| 2026-05-04 13:27 | 29.06843 | 48.05349 | 2945 ft | 161 kts | 334° |
| 2026-05-04 13:27 | 29.07842 | 48.04780 | 2918 ft | 160 kts | 336° |
| 2026-05-04 13:28 | 29.08842 | 48.04234 | 2800 ft | 159 kts | 336° |
| 2026-05-04 13:28 | 29.09842 | 48.03698 | 2632 ft | 158 kts | 336° |
| 2026-05-04 13:28 | 29.10836 | 48.03168 | 2425 ft | 157 kts | 336° |
| 2026-05-04 13:28 | 29.11824 | 48.02644 | 2220 ft | 156 kts | 336° |
| 2026-05-04 13:29 | 29.12804 | 48.02124 | 2037 ft | 152 kts | 337° |
| 2026-05-04 13:29 | 29.13754 | 48.01620 | 1822 ft | 149 kts | 337° |
| 2026-05-04 13:29 | 29.14691 | 48.01123 | 1628 ft | 148 kts | 337° |
| 2026-05-04 13:29 | 29.15621 | 48.00621 | 1428 ft | 147 kts | 336° |
| 2026-05-04 13:30 | 29.16546 | 48.00128 | 1239 ft | 146 kts | 338° |
| 2026-05-04 13:30 | 29.17480 | 47.99660 | 1021 ft | 146 kts | 338° |
| 2026-05-04 13:30 | 29.18399 | 47.99176 | 834 ft | 146 kts | 336° |
| 2026-05-04 13:30 | 29.19314 | 47.98676 | 654 ft | 146 kts | 336° |
| 2026-05-04 13:31 | 29.20232 | 47.98196 | 432 ft | 145 kts | 338° |
| 2026-05-04 13:31 | 29.21144 | 47.97707 | 272 ft | 145 kts | 335° |
| 2026-05-04 13:31 | 29.22026 | 47.97240 | 192 ft | 127 kts | 337° |
| 2026-05-04 13:31 | 29.22661 | 47.96892 | 183 ft | 76 kts | 334° |
| 2026-05-04 13:32 | 29.22987 | 47.96720 | 193 ft | 27 kts | 335° |
| 2026-05-04 13:32 | 29.23041 | 47.96691 | 195 ft | 5 kts | 335° |
| 2026-05-04 13:32 | 29.23102 | 47.96728 | 201 ft | 10 kts | 53° |
| 2026-05-04 13:32 | 29.23124 | 47.96787 | 182 ft | 9 kts | 68° |
| 2026-05-04 13:33 | 29.23167 | 47.96858 | 176 ft | 13 kts | 18° |
| 2026-05-04 13:33 | 29.23240 | 47.96828 | 177 ft | 10 kts | 329° |
| 2026-05-04 13:33 | 29.23287 | 47.96797 | 179 ft | 6 kts | 332° |
| 2026-05-04 13:33 | 29.23326 | 47.96779 | 179 ft | 9 kts | 340° |
| 2026-05-04 13:34 | 29.23430 | 47.96730 | 177 ft | 21 kts | 333° |
| 2026-05-04 13:34 | 29.23573 | 47.96654 | 172 ft | 25 kts | 336° |
| 2026-05-04 13:34 | 29.23743 | 47.96565 | 166 ft | 28 kts | 334° |
| 2026-05-04 13:34 | 29.23927 | 47.96467 | 166 ft | 30 kts | 335° |
| 2026-05-04 13:35 | 29.24117 | 47.96365 | 166 ft | 30 kts | 335° |
| 2026-05-04 13:35 | 29.24513 | 47.96156 | 165 ft | 31 kts | 335° |
| 2026-05-04 13:35 | 29.24703 | 47.96054 | 165 ft | 29 kts | 334° |
| 2026-05-04 13:36 | 29.24868 | 47.95967 | 165 ft | 22 kts | 337° |
| 2026-05-04 13:36 | 29.25001 | 47.95946 | 166 ft | 18 kts | 23° |
| 2026-05-04 13:36 | 29.25045 | 47.96015 | 167 ft | 3 kts | 65° |
| 2026-05-04 13:36 | 29.25047 | 47.96021 | 167 ft | 0 kts | 66° |